KAQR

Details ICAO KAQR
Name ATOKA MUNI
Region United States
Timezone America/Chicago (UTC-6.0)
Plans Departing 5
Arriving 2
Stats Elevation 590 ft / 180 m (AMSL)
Location 34.398339° -96.148061°
Runways 1
Magnetic Variation 2.868° E
Sunrise 2017-12-10 13:21:49 UTC / 2017-12-10 07:21:49 Local
Sunset 2017-12-10 23:16:08 UTC / 2017-12-10 17:16:08 Local
Advertisement - Login to hide

Runways

ID Width Length Bearing (true) Bearing (mag) Surface Threshold Offset Overrun Length
18 40 ft / 12 m 3,024 ft / 922 m 181.20° 178.33° Asphalt 197 ft / 60 m 0 ft / 0 m
36 40 ft / 12 m 3,024 ft / 922 m 1.20° 358.33° Asphalt 233 ft / 71 m 0 ft / 0 m

Map

Weather


0- 5 10 15 20 25 30 35+ Temperature / ° C

Clouds and Precipitation
Forecast for 2017-12-11 06:00 UTC. Updated an hour ago

Ground ~20,000 ft ~40,000 ft Winds

METAR

KAQR 110555Z AUTO 00000KT 10SM CLR 01/M05 A3027 RMK AO2

TAF

Not found

Frequencies

Recorded 121.12 MHz AWOS 3
Unicom 122.90 MHz CTAF
Warning: Do not use this data for real-world aviation or navigation. No guarantee of current accuracy is given.